Terminal Aerodrome Forecast
Issued by NWS

Current Version | Previous Version | Graphics & Text | Print | Product List | Glossary On
Versions: 1 2 3 4 5 6 7 8 9 10 11 12 13 14 15 16 17 18 19 20 21 22 23
000
FTUS41 KILN 271744
TAFLCK
TAF
KLCK 271744Z 2718/2818 VRB03KT P6SM BKN035
     FM272300 VRB03KT P6SM BKN080
     FM280800 VRB03KT P6SM VCSH BKN025
     FM280900 12004KT P6SM VCSH BKN015
     FM281200 16006KT 5SM -SHRA VCTS OVC015CB
     FM281500 20012KT P6SM BKN050=

USA.gov is the U.S. government's official web portal to all federal, state and local government web resources and services.